Time;durP1;ratioP1;P1;durP2;ratioP2;P2;SDS_P1;SDS_P2;PMS_P1;PMS_P2;Temp;Humidity;BMP_temperature;BMP_pressure;BME280_temperature;BME280_humidity;BME280_pressure;Samples;Min_cycle;Max_cycle;Signal;HPM_P1;HPM_P2
2020/12/25 00:00:09;;;;;;;19.92;14.35;;;5.10;96.30;;;;;;2088019;28;20531;-69
2020/12/25 00:01:15;;;;;;;20.73;14.43;;;5.10;96.30;;;;;;2088171;28;20065;-70
2020/12/25 00:02:16;;;;;;;20.20;13.95;;;5.10;96.30;;;;;;2087774;28;20037;-71
2020/12/25 00:03:16;;;;;;;20.65;14.35;;;5.10;96.20;;;;;;2088200;28;20028;-70
2020/12/25 00:04:17;;;;;;;20.95;14.52;;;5.10;96.20;;;;;;2088733;28;20507;-69
2020/12/25 00:05:18;;;;;;;20.35;14.05;;;5.10;96.30;;;;;;2088641;28;20065;-70
2020/12/25 00:06:19;;;;;;;18.73;13.70;;;5.00;96.40;;;;;;2088707;28;20029;-70
2020/12/25 00:07:20;;;;;;;21.20;13.90;;;5.10;96.50;;;;;;2088710;28;20124;-70
2020/12/25 00:08:20;;;;;;;19.83;14.00;;;5.10;96.50;;;;;;2088638;28;20033;-70
2020/12/25 00:09:21;;;;;;;20.65;14.30;;;5.10;96.50;;;;;;2088231;28;20473;-70
2020/12/25 00:10:22;;;;;;;20.40;14.30;;;5.00;96.40;;;;;;2088631;28;20025;-70
2020/12/25 00:11:29;;;;;;;20.17;13.57;;;5.10;96.40;;;;;;2088391;28;20021;-70
2020/12/25 00:12:30;;;;;;;18.98;13.30;;;5.10;96.40;;;;;;2088708;28;20092;-70
2020/12/25 00:13:31;;;;;;;18.15;13.15;;;5.10;96.40;;;;;;2088080;28;20037;-70
2020/12/25 00:14:31;;;;;;;19.20;13.40;;;5.10;96.30;;;;;;2079698;28;20041;-70
2020/12/25 00:15:32;;;;;;;17.30;12.55;;;5.10;96.30;;;;;;2088108;28;20040;-70
2020/12/25 00:16:33;;;;;;;18.75;12.30;;;5.10;96.70;;;;;;2088641;28;20452;-70
2020/12/25 00:17:34;;;;;;;17.48;12.70;;;5.10;96.30;;;;;;2088715;28;20391;-70
2020/12/25 00:18:35;;;;;;;16.58;11.93;;;5.10;96.30;;;;;;2088666;28;20025;-70
2020/12/25 00:19:35;;;;;;;16.88;12.07;;;5.10;96.40;;;;;;2088483;28;20021;-70
2020/12/25 00:20:36;;;;;;;17.95;12.07;;;5.10;96.20;;;;;;2089138;28;20079;-70
2020/12/25 00:21:37;;;;;;;17.50;12.32;;;5.10;96.00;;;;;;2089811;28;20036;-70
2020/12/25 00:22:38;;;;;;;16.95;12.35;;;5.10;95.80;;;;;;2089160;28;20013;-68
2020/12/25 00:23:38;;;;;;;17.15;11.73;;;5.10;95.80;;;;;;2088472;28;20036;-70
2020/12/25 00:24:40;;;;;;;17.13;12.43;;;5.10;95.80;;;;;;2089072;28;20108;-68
2020/12/25 00:25:41;;;;;;;15.68;11.95;;;5.10;95.90;;;;;;2089592;28;20052;-69
2020/12/25 00:26:41;;;;;;;16.67;12.20;;;5.10;95.90;;;;;;2088354;28;20095;-69
2020/12/25 00:27:42;;;;;;;18.42;12.98;;;5.10;95.90;;;;;;2088753;28;20050;-69
2020/12/25 00:28:43;;;;;;;16.75;11.88;;;5.10;96.00;;;;;;2088949;28;20029;-69
2020/12/25 00:29:44;;;;;;;16.67;12.15;;;5.10;96.10;;;;;;2088700;28;20431;-70
2020/12/25 00:30:45;;;;;;;18.02;12.10;;;5.10;95.70;;;;;;2088898;28;20736;-68
2020/12/25 00:31:46;;;;;;;15.65;10.98;;;5.10;95.70;;;;;;2088443;28;20021;-69
2020/12/25 00:32:47;;;;;;;16.90;11.25;;;5.10;95.70;;;;;;2088687;28;20025;-69
2020/12/25 00:33:47;;;;;;;18.35;12.23;;;5.10;95.50;;;;;;2088756;28;20032;-69
2020/12/25 00:34:48;;;;;;;14.93;11.00;;;5.10;95.50;;;;;;2088526;28;20090;-69
2020/12/25 00:35:49;;;;;;;16.30;11.50;;;5.10;95.70;;;;;;2088612;28;20635;-69
2020/12/25 00:36:49;;;;;;;17.35;11.23;;;5.10;95.50;;;;;;2088548;28;20066;-69
2020/12/25 00:37:50;;;;;;;15.27;10.48;;;5.10;95.50;;;;;;2088531;28;20469;-69
2020/12/25 00:38:51;;;;;;;14.10;10.18;;;5.10;95.50;;;;;;2088004;28;20035;-69
2020/12/25 00:39:51;;;;;;;13.60;10.02;;;5.10;95.30;;;;;;2087811;28;20610;-69
2020/12/25 00:40:52;;;;;;;15.73;10.27;;;5.10;95.20;;;;;;2087812;28;20032;-69
2020/12/25 00:41:53;;;;;;;15.70;10.57;;;5.10;95.10;;;;;;2088230;28;20036;-69
2020/12/25 00:42:54;;;;;;;16.17;10.20;;;5.10;95.00;;;;;;2087925;28;20040;-70
2020/12/25 00:43:55;;;;;;;14.88;10.30;;;5.00;94.90;;;;;;2079541;28;20037;-70
2020/12/25 00:44:55;;;;;;;14.15;10.32;;;5.00;95.00;;;;;;2087842;28;20547;-69
2020/12/25 00:45:56;;;;;;;14.18;10.00;;;5.10;94.90;;;;;;2087716;28;20072;-69
2020/12/25 00:46:57;;;;;;;15.23;10.27;;;5.00;94.80;;;;;;2079476;28;20080;-70
2020/12/25 00:47:57;;;;;;;16.70;11.02;;;5.00;94.80;;;;;;2079627;28;20135;-70
2020/12/25 00:48:58;;;;;;;16.17;10.70;;;5.00;94.90;;;;;;2087266;28;20025;-70
2020/12/25 00:49:59;;;;;;;16.65;10.50;;;5.10;95.00;;;;;;2079522;28;20576;-70
2020/12/25 00:51:00;;;;;;;15.35;10.38;;;5.00;94.90;;;;;;2079661;28;20045;-69
2020/12/25 00:52:01;;;;;;;14.70;10.02;;;5.00;95.00;;;;;;2079312;28;20610;-69
2020/12/25 00:53:04;;;;;;;13.45;9.88;;;5.00;95.10;;;;;;2087742;28;20102;-69
2020/12/25 00:54:04;;;;;;;15.80;10.68;;;5.00;95.30;;;;;;2080231;28;20033;-68
2020/12/25 00:55:24;;;;;;;15.35;10.82;;;5.00;95.40;;;;;;2083728;28;20072;-68
2020/12/25 00:56:25;;;;;;;15.77;10.43;;;5.00;95.50;;;;;;2081158;28;20551;-70
2020/12/25 00:57:27;;;;;;;16.58;11.18;;;5.00;95.60;;;;;;2089431;28;20029;-67
2020/12/25 00:58:53;;;;;;;18.20;11.80;;;5.00;95.60;;;;;;2088003;28;20068;-70
2020/12/25 01:00:00;;;;;;;17.02;11.93;;;5.00;95.80;;;;;;2089300;28;20104;-69
2020/12/25 01:01:00;;;;;;;16.58;11.38;;;5.00;95.90;;;;;;2089417;28;20381;-69
2020/12/25 01:02:01;;;;;;;17.33;11.32;;;5.00;96.10;;;;;;2089606;28;20083;-69
2020/12/25 01:03:02;;;;;;;18.98;12.00;;;5.00;96.00;;;;;;2089918;28;20057;-69
2020/12/25 01:04:03;;;;;;;16.58;11.60;;;5.10;96.00;;;;;;2090026;28;20029;-69
2020/12/25 01:05:04;;;;;;;16.92;11.27;;;5.00;95.80;;;;;;2089866;28;20095;-69
2020/12/25 01:06:15;;;;;;;15.23;10.65;;;5.00;95.90;;;;;;2090010;28;20063;-69
2020/12/25 01:07:16;;;;;;;21.02;12.38;;;5.00;96.10;;;;;;2089887;28;20029;-69
2020/12/25 01:08:17;;;;;;;17.58;12.20;;;5.00;96.30;;;;;;2089894;28;20069;-69
2020/12/25 01:09:18;;;;;;;18.00;11.40;;;5.00;96.40;;;;;;2088522;28;20033;-69
2020/12/25 01:10:18;;;;;;;15.98;11.70;;;5.00;96.40;;;;;;2089247;28;20029;-69
2020/12/25 01:11:26;;;;;;;16.15;11.27;;;5.00;96.40;;;;;;2089532;28;20027;-69
2020/12/25 01:12:27;;;;;;;17.60;11.52;;;5.00;96.40;;;;;;2089089;28;20103;-69
2020/12/25 01:13:27;;;;;;;16.50;11.18;;;5.00;96.30;;;;;;2089175;28;20040;-69
2020/12/25 01:14:29;;;;;;;15.18;11.00;;;5.00;96.30;;;;;;2089835;28;20025;-69
2020/12/25 01:15:30;;;;;;;17.08;11.77;;;5.00;96.40;;;;;;2089740;28;20017;-69
2020/12/25 01:16:31;;;;;;;12.85;9.05;;;4.90;96.40;;;;;;2088931;28;20080;-69
2020/12/25 01:17:31;;;;;;;13.55;9.43;;;4.90;96.20;;;;;;2089031;28;20060;-69
2020/12/25 01:18:33;;;;;;;12.65;9.07;;;4.90;95.70;;;;;;2089727;28;20028;-69
2020/12/25 01:19:33;;;;;;;13.20;8.55;;;4.90;95.50;;;;;;2088570;28;20036;-68
2020/12/25 01:20:35;;;;;;;13.80;9.30;;;4.90;95.40;;;;;;2080781;28;20029;-68
2020/12/25 01:21:36;;;;;;;13.25;9.40;;;4.90;95.20;;;;;;2088924;28;20033;-68
2020/12/25 01:22:36;;;;;;;12.88;9.30;;;4.90;95.30;;;;;;2080834;28;20021;-68
2020/12/25 01:23:37;;;;;;;13.68;9.43;;;4.90;95.30;;;;;;2080850;28;20127;-68
2020/12/25 01:24:38;;;;;;;13.70;9.43;;;4.90;95.40;;;;;;2089635;28;20108;-69
2020/12/25 01:25:38;;;;;;;14.32;9.93;;;4.80;95.50;;;;;;2089674;28;20029;-69
2020/12/25 01:26:39;;;;;;;14.50;9.70;;;4.80;95.60;;;;;;2089256;28;20029;-69
2020/12/25 01:27:40;;;;;;;15.45;10.02;;;4.80;95.80;;;;;;2089165;28;20488;-70
2020/12/25 01:28:40;;;;;;;14.18;9.60;;;4.80;96.00;;;;;;2089852;28;20033;-68
2020/12/25 01:29:41;;;;;;;15.43;10.00;;;4.90;96.10;;;;;;2088632;28;20404;-69
2020/12/25 01:30:42;;;;;;;15.52;10.23;;;4.90;96.20;;;;;;2088917;28;20560;-68
2020/12/25 01:31:42;;;;;;;15.68;10.55;;;4.90;96.20;;;;;;2089447;28;20132;-68
2020/12/25 01:32:43;;;;;;;15.90;10.65;;;4.90;96.30;;;;;;2089613;28;20017;-68
2020/12/25 01:33:45;;;;;;;14.23;10.00;;;4.90;96.20;;;;;;2089785;28;20400;-68
2020/12/25 01:34:46;;;;;;;13.80;9.63;;;4.90;96.30;;;;;;2089670;28;20132;-68
2020/12/25 01:35:46;;;;;;;16.15;10.30;;;4.90;96.40;;;;;;2089703;28;20029;-68
2020/12/25 01:36:47;;;;;;;17.13;10.63;;;4.90;96.80;;;;;;2089728;28;20056;-68
2020/12/25 01:37:47;;;;;;;15.77;10.68;;;4.90;96.40;;;;;;2088967;28;20035;-68
2020/12/25 01:38:48;;;;;;;18.02;11.23;;;4.90;96.30;;;;;;2088542;28;20388;-68
2020/12/25 01:39:49;;;;;;;15.10;10.57;;;4.90;96.40;;;;;;2089662;28;20043;-68
2020/12/25 01:40:49;;;;;;;16.52;10.38;;;4.80;96.30;;;;;;2088908;28;20025;-68
2020/12/25 01:41:50;;;;;;;14.80;10.35;;;4.80;96.40;;;;;;2088866;28;20025;-68
2020/12/25 01:42:51;;;;;;;14.35;10.50;;;4.80;96.40;;;;;;2089462;28;20135;-69
2020/12/25 01:43:51;;;;;;;16.23;9.88;;;4.90;96.40;;;;;;2089694;28;20025;-69
2020/12/25 01:44:52;;;;;;;15.95;10.45;;;4.80;96.40;;;;;;2089434;28;20536;-69
2020/12/25 01:45:53;;;;;;;14.38;10.13;;;4.80;96.50;;;;;;2089569;28;20029;-68
2020/12/25 01:46:54;;;;;;;16.73;10.45;;;4.90;96.50;;;;;;2089576;28;20052;-69
2020/12/25 01:47:55;;;;;;;15.60;9.82;;;4.90;96.60;;;;;;2089531;28;20047;-69
2020/12/25 01:48:56;;;;;;;13.73;9.45;;;4.90;96.60;;;;;;2088920;28;20116;-69
2020/12/25 01:49:58;;;;;;;14.57;9.13;;;4.90;96.70;;;;;;2089686;28;20062;-69
2020/12/25 01:50:59;;;;;;;11.90;9.10;;;4.90;96.70;;;;;;2089424;28;20032;-69
2020/12/25 01:52:00;;;;;;;17.13;9.93;;;4.90;96.70;;;;;;2089342;28;20014;-69
2020/12/25 01:53:04;;;;;;;13.60;9.30;;;4.90;96.60;;;;;;2089475;28;20036;-69
2020/12/25 01:54:05;;;;;;;15.68;10.00;;;4.90;96.60;;;;;;2089679;28;20033;-69
2020/12/25 01:55:07;;;;;;;13.68;9.40;;;4.90;96.50;;;;;;2088809;28;20057;-69
2020/12/25 01:56:09;;;;;;;14.52;10.07;;;4.90;96.40;;;;;;2088956;28;20388;-69
2020/12/25 01:57:13;;;;;;;13.73;9.35;;;4.90;96.30;;;;;;2089451;28;20439;-69
2020/12/25 01:58:15;;;;;;;14.57;9.40;;;4.90;96.20;;;;;;2089487;28;20017;-68
2020/12/25 01:59:15;;;;;;;14.55;9.48;;;4.90;96.30;;;;;;2089082;28;20039;-69
2020/12/25 02:00:16;;;;;;;14.57;9.75;;;4.80;96.20;;;;;;2089430;28;20029;-69
2020/12/25 02:01:17;;;;;;;14.80;9.35;;;4.80;96.20;;;;;;2089094;28;20418;-69
2020/12/25 02:02:18;;;;;;;16.15;10.18;;;4.80;96.20;;;;;;2089508;28;20036;-69
2020/12/25 02:03:19;;;;;;;13.23;9.40;;;4.80;96.20;;;;;;2089401;28;20043;-68
2020/12/25 02:04:19;;;;;;;14.98;10.13;;;4.80;96.20;;;;;;2089463;28;20017;-69
2020/12/25 02:05:21;;;;;;;14.77;9.98;;;4.80;96.30;;;;;;2088355;28;20075;-69
2020/12/25 02:06:22;;;;;;;12.77;9.43;;;4.80;96.40;;;;;;2088412;28;20036;-69
2020/12/25 02:07:22;;;;;;;13.88;9.75;;;4.80;96.40;;;;;;2089348;28;20029;-69
2020/12/25 02:08:23;;;;;;;13.38;9.77;;;4.90;96.50;;;;;;2089405;28;20033;-68
2020/12/25 02:09:24;;;;;;;18.08;10.20;;;4.90;96.40;;;;;;2088851;28;20021;-69
2020/12/25 02:10:24;;;;;;;13.40;9.70;;;4.90;96.30;;;;;;2089378;28;20037;-68
2020/12/25 02:11:25;;;;;;;15.38;10.07;;;4.90;96.40;;;;;;2089065;28;20029;-69
2020/12/25 02:12:26;;;;;;;15.52;10.52;;;4.90;96.40;;;;;;2088768;28;20029;-68
2020/12/25 02:13:29;;;;;;;15.50;9.95;;;4.90;96.40;;;;;;2088668;28;20044;-69
2020/12/25 02:14:29;;;;;;;16.38;10.20;;;4.90;96.30;;;;;;2088789;28;20500;-69
2020/12/25 02:15:31;;;;;;;15.02;9.73;;;4.90;96.30;;;;;;2088780;28;20025;-69
2020/12/25 02:16:32;;;;;;;16.67;10.90;;;4.90;96.30;;;;;;2088964;28;20634;-69
2020/12/25 02:17:33;;;;;;;15.68;10.48;;;4.90;96.30;;;;;;2089746;28;20055;-69
2020/12/25 02:18:37;;;;;;;15.48;10.40;;;4.90;96.30;;;;;;2089577;28;20037;-69
2020/12/25 02:19:38;;;;;;;16.02;9.80;;;4.90;96.40;;;;;;2090132;28;20036;-69
2020/12/25 02:20:39;;;;;;;17.10;10.52;;;4.90;96.50;;;;;;2090498;28;20036;-68
2020/12/25 02:21:40;;;;;;;16.63;10.95;;;4.90;96.40;;;;;;2089232;28;20029;-68
2020/12/25 02:22:41;;;;;;;16.05;10.85;;;4.80;96.40;;;;;;2089476;28;20037;-69
2020/12/25 02:23:42;;;;;;;17.98;10.75;;;4.80;96.50;;;;;;2089333;28;20029;-68
2020/12/25 02:24:43;;;;;;;16.38;10.68;;;4.80;96.60;;;;;;2089253;28;20108;-68
2020/12/25 02:25:43;;;;;;;16.25;10.90;;;4.80;96.60;;;;;;2089229;28;20116;-68
2020/12/25 02:26:44;;;;;;;16.30;10.88;;;4.80;96.80;;;;;;2089337;28;20036;-69
2020/12/25 02:27:45;;;;;;;17.17;11.05;;;4.80;96.80;;;;;;2088863;28;20145;-69
2020/12/25 02:28:45;;;;;;;14.52;10.23;;;4.80;96.80;;;;;;2088642;28;20029;-69
2020/12/25 02:29:46;;;;;;;14.30;10.07;;;4.80;96.80;;;;;;2088208;28;20033;-70
2020/12/25 02:30:47;;;;;;;13.95;9.23;;;4.80;96.90;;;;;;2088704;28;20036;-69
2020/12/25 02:31:47;;;;;;;15.98;10.88;;;4.80;96.90;;;;;;2089039;28;20108;-70
2020/12/25 02:32:49;;;;;;;17.92;11.43;;;4.80;96.90;;;;;;2089172;28;20021;-68
2020/12/25 02:33:49;;;;;;;17.08;11.00;;;4.80;97.00;;;;;;2089270;28;20056;-69
2020/12/25 02:34:50;;;;;;;15.05;10.70;;;4.80;97.00;;;;;;2089038;28;20021;-68
2020/12/25 02:35:51;;;;;;;18.50;11.25;;;4.80;97.10;;;;;;2089231;28;20056;-68
2020/12/25 02:36:51;;;;;;;17.38;11.63;;;4.80;97.10;;;;;;2089143;28;20052;-68
2020/12/25 02:37:52;;;;;;;17.80;11.40;;;4.80;97.10;;;;;;2088600;28;20490;-68
2020/12/25 02:38:53;;;;;;;19.02;12.02;;;4.80;97.20;;;;;;2088127;28;20144;-68
2020/12/25 02:39:53;;;;;;;16.67;11.05;;;4.80;97.30;;;;;;2089323;28;20025;-68
2020/12/25 02:40:54;;;;;;;15.57;10.68;;;4.80;97.20;;;;;;2089309;28;20460;-68
2020/12/25 02:41:55;;;;;;;16.92;11.48;;;4.80;97.30;;;;;;2089038;28;20020;-68
2020/12/25 02:42:55;;;;;;;17.95;11.80;;;4.80;97.30;;;;;;2089104;28;20095;-68
2020/12/25 02:43:56;;;;;;;19.60;12.05;;;4.90;97.30;;;;;;2089225;28;20028;-68
2020/12/25 02:44:57;;;;;;;20.30;12.25;;;4.90;97.30;;;;;;2089150;28;20100;-69
2020/12/25 02:45:57;;;;;;;17.52;11.98;;;4.90;97.30;;;;;;2089512;28;20082;-68
2020/12/25 02:46:58;;;;;;;16.20;11.40;;;4.90;97.30;;;;;;2089370;28;20028;-69
2020/12/25 02:47:59;;;;;;;18.25;11.32;;;4.90;97.30;;;;;;2089466;28;20029;-69
2020/12/25 02:48:59;;;;;;;18.63;12.05;;;4.90;97.40;;;;;;2088655;28;20060;-68
2020/12/25 02:50:00;;;;;;;20.58;12.65;;;4.90;97.40;;;;;;2089501;28;20017;-68
2020/12/25 02:51:01;;;;;;;17.98;12.07;;;4.90;97.40;;;;;;2089465;28;20036;-69
2020/12/25 02:52:01;;;;;;;18.10;12.13;;;4.90;97.40;;;;;;2089377;28;20017;-68
2020/12/25 02:53:02;;;;;;;20.83;12.95;;;4.90;97.40;;;;;;2089701;28;20025;-69
2020/12/25 02:54:03;;;;;;;21.30;12.93;;;4.90;97.40;;;;;;2089612;28;20029;-68
2020/12/25 02:55:04;;;;;;;20.10;12.68;;;4.90;97.50;;;;;;2089039;28;20080;-68
2020/12/25 02:56:04;;;;;;;21.55;14.18;;;4.90;97.50;;;;;;2088637;28;20017;-68
2020/12/25 02:57:05;;;;;;;19.25;12.80;;;4.90;97.40;;;;;;2089023;28;20040;-68
2020/12/25 02:58:06;;;;;;;21.52;13.38;;;4.90;97.40;;;;;;2089082;28;20100;-68
2020/12/25 02:59:06;;;;;;;19.40;12.43;;;4.90;97.90;;;;;;2088527;28;20056;-68
2020/12/25 03:00:07;;;;;;;20.52;13.07;;;4.90;97.50;;;;;;2089228;28;20025;-68
2020/12/25 03:01:15;;;;;;;19.95;13.23;;;4.90;97.50;;;;;;2089118;28;20528;-69
2020/12/25 03:02:16;;;;;;;19.00;12.63;;;4.90;97.50;;;;;;2089004;28;20033;-68
2020/12/25 03:03:17;;;;;;;19.27;12.40;;;4.90;97.50;;;;;;2089088;28;20757;-68
2020/12/25 03:04:19;;;;;;;19.40;12.27;;;4.90;97.50;;;;;;2088288;28;20025;-68
2020/12/25 03:05:19;;;;;;;21.45;13.50;;;4.90;97.50;;;;;;2088478;28;20470;-68
2020/12/25 03:06:20;;;;;;;20.80;12.77;;;4.90;97.40;;;;;;2089005;28;20040;-68
2020/12/25 03:07:20;;;;;;;19.67;13.15;;;4.90;97.20;;;;;;2088903;28;20040;-68
2020/12/25 03:08:21;;;;;;;17.95;12.40;;;4.90;97.00;;;;;;2088535;28;20044;-69
2020/12/25 03:09:22;;;;;;;20.77;13.85;;;4.90;97.20;;;;;;2087824;28;20064;-70
2020/12/25 03:10:23;;;;;;;20.85;13.13;;;4.90;97.00;;;;;;2088978;28;20040;-69
2020/12/25 03:11:24;;;;;;;19.92;12.95;;;4.90;97.10;;;;;;2088590;28;20033;-70
2020/12/25 03:12:25;;;;;;;20.17;13.50;;;4.90;97.20;;;;;;2089008;28;20100;-69
2020/12/25 03:13:26;;;;;;;20.92;13.52;;;4.80;97.20;;;;;;2089123;28;20400;-69
2020/12/25 03:14:26;;;;;;;19.42;12.75;;;4.90;97.10;;;;;;2088976;28;20104;-69
2020/12/25 03:15:27;;;;;;;21.15;13.27;;;4.90;97.00;;;;;;2088811;28;20136;-69
2020/12/25 03:16:28;;;;;;;20.85;12.95;;;4.90;96.90;;;;;;2089006;28;20423;-69
2020/12/25 03:17:28;;;;;;;17.88;12.73;;;4.90;96.90;;;;;;2088801;28;20100;-72
2020/12/25 03:18:29;;;;;;;18.02;12.30;;;4.90;96.90;;;;;;2089179;28;20787;-69
2020/12/25 03:19:30;;;;;;;20.15;12.90;;;4.90;96.90;;;;;;2088437;28;20033;-69
2020/12/25 03:20:31;;;;;;;20.05;12.90;;;4.90;97.10;;;;;;2088961;28;20025;-69
2020/12/25 03:21:31;;;;;;;19.50;13.23;;;4.90;96.70;;;;;;2088659;28;20064;-69
2020/12/25 03:22:32;;;;;;;19.30;12.57;;;4.80;96.70;;;;;;2088928;28;20384;-70
2020/12/25 03:23:33;;;;;;;18.52;12.23;;;4.80;96.70;;;;;;2088699;28;20043;-69
2020/12/25 03:24:33;;;;;;;21.25;13.38;;;4.90;96.80;;;;;;2088913;28;20028;-69
2020/12/25 03:25:34;;;;;;;19.25;12.38;;;4.80;96.80;;;;;;2090958;28;20455;-69
2020/12/25 03:26:35;;;;;;;20.30;12.57;;;4.80;96.70;;;;;;2090307;28;20475;-69
2020/12/25 03:27:36;;;;;;;21.20;13.20;;;4.80;96.70;;;;;;2090663;28;20365;-70
2020/12/25 03:28:36;;;;;;;18.95;12.23;;;4.80;96.60;;;;;;2090832;28;20063;-70
2020/12/25 03:29:37;;;;;;;18.35;12.25;;;4.80;96.50;;;;;;2090372;28;20119;-69
2020/12/25 03:30:38;;;;;;;18.05;11.85;;;4.90;96.60;;;;;;2088984;28;20029;-69
2020/12/25 03:31:38;;;;;;;18.15;11.80;;;4.90;96.70;;;;;;2080034;28;20025;-68
2020/12/25 03:32:39;;;;;;;18.70;11.98;;;4.90;96.60;;;;;;2088982;28;20025;-70
2020/12/25 03:33:40;;;;;;;19.52;12.30;;;4.90;96.50;;;;;;2088575;28;20389;-69
2020/12/25 03:34:40;;;;;;;17.58;11.68;;;4.90;96.40;;;;;;2088177;28;20024;-68
2020/12/25 03:35:41;;;;;;;17.75;11.80;;;4.90;96.50;;;;;;2089089;28;20532;-69
2020/12/25 03:36:43;;;;;;;19.08;12.48;;;4.90;96.50;;;;;;2088247;28;20029;-69
2020/12/25 03:37:43;;;;;;;16.52;11.60;;;5.00;96.50;;;;;;2088289;28;20017;-70
2020/12/25 03:38:44;;;;;;;20.55;12.38;;;5.00;96.50;;;;;;2089061;28;20044;-69
2020/12/25 03:39:46;;;;;;;16.98;11.80;;;5.00;96.40;;;;;;2088263;28;20087;-69
2020/12/25 03:40:47;;;;;;;20.88;12.88;;;5.00;96.40;;;;;;2088303;28;20103;-69
2020/12/25 03:41:48;;;;;;;17.23;11.88;;;5.00;96.40;;;;;;2088004;28;20028;-69
2020/12/25 03:42:49;;;;;;;18.15;12.07;;;5.00;96.40;;;;;;2089097;28;20487;-68
2020/12/25 03:43:49;;;;;;;19.20;12.02;;;5.00;96.40;;;;;;2088782;28;20025;-69
2020/12/25 03:44:54;;;;;;;18.42;11.70;;;5.00;96.30;;;;;;2088837;28;20063;-69
2020/12/25 03:45:55;;;;;;;21.38;12.88;;;5.00;96.30;;;;;;2088933;28;20475;-69
2020/12/25 03:46:55;;;;;;;19.45;11.98;;;5.00;96.30;;;;;;2088779;28;20027;-70
2020/12/25 03:48:00;;;;;;;17.10;11.27;;;4.90;96.20;;;;;;2088963;28;20506;-69
2020/12/25 03:49:03;;;;;;;18.40;11.77;;;4.90;96.20;;;;;;2088270;28;20396;-69
2020/12/25 03:50:04;;;;;;;18.08;12.32;;;5.00;96.20;;;;;;2088246;28;20508;-69
2020/12/25 03:51:05;;;;;;;19.30;12.02;;;4.90;96.00;;;;;;2088163;28;20029;-69
2020/12/25 03:52:05;;;;;;;18.73;11.98;;;5.00;96.00;;;;;;2088418;28;20086;-69
2020/12/25 03:53:06;;;;;;;18.15;11.48;;;5.00;95.90;;;;;;2088830;28;20392;-69
2020/12/25 03:54:07;;;;;;;19.88;12.48;;;4.90;96.00;;;;;;2088789;28;20044;-69
2020/12/25 03:55:08;;;;;;;18.23;11.38;;;4.90;96.20;;;;;;2088078;28;20033;-69
2020/12/25 03:56:08;;;;;;;17.98;11.40;;;4.90;96.30;;;;;;2088203;28;20056;-69
2020/12/25 03:57:09;;;;;;;16.90;11.15;;;4.90;96.40;;;;;;2088769;28;20115;-69
2020/12/25 03:58:10;;;;;;;20.17;11.88;;;4.90;96.30;;;;;;2088833;28;20074;-69
2020/12/25 03:59:10;;;;;;;17.92;11.90;;;4.90;96.30;;;;;;2088119;28;20392;-70
2020/12/25 04:00:11;;;;;;;16.92;11.35;;;4.90;96.30;;;;;;2088729;28;20044;-69
2020/12/25 04:01:12;;;;;;;18.13;11.60;;;4.90;96.30;;;;;;2088697;28;20036;-69
2020/12/25 04:02:12;;;;;;;19.98;13.25;;;4.90;96.30;;;;;;2088533;28;20116;-69
2020/12/25 04:03:13;;;;;;;20.60;12.55;;;4.90;96.40;;;;;;2088898;28;20025;-69
2020/12/25 04:04:14;;;;;;;19.30;11.85;;;4.90;96.50;;;;;;2088768;28;20595;-70
2020/12/25 04:05:15;;;;;;;17.27;11.65;;;4.90;96.60;;;;;;2088949;28;20036;-69
2020/12/25 04:06:16;;;;;;;18.15;11.77;;;4.90;96.70;;;;;;2088977;28;20032;-69
2020/12/25 04:07:17;;;;;;;17.40;11.38;;;4.90;97.00;;;;;;2089034;28;20063;-69
2020/12/25 04:08:17;;;;;;;19.05;12.38;;;4.90;96.60;;;;;;2088836;28;20116;-69
2020/12/25 04:09:18;;;;;;;18.05;11.93;;;4.90;96.60;;;;;;2087582;28;20044;-69
2020/12/25 04:10:19;;;;;;;17.45;11.25;;;4.90;96.50;;;;;;2088455;28;20040;-69
2020/12/25 04:11:19;;;;;;;15.93;10.70;;;4.90;96.40;;;;;;2087974;28;20506;-69
2020/12/25 04:12:20;;;;;;;20.55;12.10;;;4.90;96.40;;;;;;2088332;28;20028;-70
2020/12/25 04:13:22;;;;;;;19.83;11.50;;;4.90;96.40;;;;;;2088604;28;20550;-70
2020/12/25 04:14:22;;;;;;;17.95;11.77;;;4.80;96.40;;;;;;2088573;28;20033;-69
2020/12/25 04:15:23;;;;;;;16.35;11.07;;;4.80;96.40;;;;;;2087908;28;20495;-69
2020/12/25 04:16:24;;;;;;;20.50;11.50;;;4.80;96.30;;;;;;2088212;28;20628;-69
2020/12/25 04:17:24;;;;;;;16.65;10.55;;;4.80;96.30;;;;;;2087885;28;20087;-69
2020/12/25 04:18:25;;;;;;;16.55;10.82;;;4.80;96.30;;;;;;2088164;28;20032;-69
2020/12/25 04:19:26;;;;;;;16.40;11.15;;;4.80;96.30;;;;;;2087964;28;20052;-69
2020/12/25 04:20:26;;;;;;;16.80;11.13;;;4.80;96.30;;;;;;2088740;28;20401;-70
2020/12/25 04:21:27;;;;;;;18.88;11.27;;;4.80;96.30;;;;;;2088371;28;20495;-69
2020/12/25 04:22:28;;;;;;;17.20;10.70;;;4.80;96.30;;;;;;2088751;28;20029;-69
2020/12/25 04:23:28;;;;;;;16.95;10.18;;;4.70;96.30;;;;;;2088699;28;20132;-69
2020/12/25 04:24:29;;;;;;;19.65;12.00;;;4.70;96.30;;;;;;2087892;28;20108;-69
2020/12/25 04:25:30;;;;;;;16.65;10.02;;;4.70;96.30;;;;;;2087762;28;20066;-69
2020/12/25 04:26:30;;;;;;;14.57;9.93;;;4.70;96.30;;;;;;2088653;28;20037;-69
2020/12/25 04:27:31;;;;;;;15.52;10.50;;;4.70;96.10;;;;;;2088721;28;20484;-69
2020/12/25 04:28:31;;;;;;;18.27;10.88;;;4.70;96.20;;;;;;2088586;28;20488;-69
2020/12/25 04:29:32;;;;;;;17.58;10.55;;;4.70;96.30;;;;;;2089257;28;20750;-69
2020/12/25 04:30:33;;;;;;;16.90;10.70;;;4.70;96.40;;;;;;2090186;28;20100;-69
2020/12/25 04:31:34;;;;;;;17.15;10.45;;;4.70;96.40;;;;;;2089147;28;20116;-69
2020/12/25 04:32:34;;;;;;;17.27;10.57;;;4.70;96.40;;;;;;2089766;28;20032;-70
2020/12/25 04:33:35;;;;;;;16.20;10.35;;;4.70;96.40;;;;;;2090079;28;20047;-69
2020/12/25 04:34:35;;;;;;;15.95;10.55;;;4.70;96.30;;;;;;2090110;28;20536;-70
2020/12/25 04:35:36;;;;;;;17.08;10.85;;;4.70;96.30;;;;;;2090121;28;20067;-69
2020/12/25 04:36:37;;;;;;;15.60;10.07;;;4.70;96.30;;;;;;2089714;28;20052;-69
2020/12/25 04:37:38;;;;;;;15.05;9.93;;;4.70;96.20;;;;;;2089581;28;20064;-69
2020/12/25 04:38:38;;;;;;;14.50;9.60;;;4.70;96.30;;;;;;2090177;28;20564;-69
2020/12/25 04:39:39;;;;;;;16.20;9.50;;;4.60;96.30;;;;;;2089451;28;20032;-70
2020/12/25 04:40:43;;;;;;;13.90;9.82;;;4.70;96.40;;;;;;2090141;28;20025;-70
2020/12/25 04:41:44;;;;;;;16.50;9.82;;;4.60;96.40;;;;;;2089778;28;20480;-70
2020/12/25 04:42:52;;;;;;;14.07;9.35;;;4.60;96.40;;;;;;2090195;28;20032;-69
2020/12/25 04:44:04;;;;;;;15.15;9.48;;;4.60;96.40;;;;;;2090267;28;20039;-69
2020/12/25 04:45:04;;;;;;;15.25;9.43;;;4.60;96.40;;;;;;2090022;28;20025;-70
2020/12/25 04:46:13;;;;;;;16.23;9.52;;;4.60;96.60;;;;;;2090042;28;20125;-69
2020/12/25 04:47:17;;;;;;;16.27;9.93;;;4.60;96.60;;;;;;2089726;28;20021;-69
2020/12/25 04:48:18;;;;;;;14.43;8.80;;;4.60;96.70;;;;;;2073291;28;20026;-70
2020/12/25 04:49:20;;;;;;;12.52;8.18;;;4.60;97.00;;;;;;2080538;28;20069;-69
2020/12/25 04:50:21;;;;;;;11.57;8.15;;;4.60;96.30;;;;;;2089409;28;20064;-69
2020/12/25 04:51:22;;;;;;;10.77;7.38;;;4.60;96.20;;;;;;2089116;28;20041;-70
2020/12/25 04:52:22;;;;;;;8.88;6.68;;;4.60;96.10;;;;;;2090060;28;20029;-69
2020/12/25 04:53:24;;;;;;;10.18;7.32;;;4.60;96.00;;;;;;2090047;28;20094;-69
2020/12/25 04:54:24;;;;;;;9.60;6.00;;;4.60;95.80;;;;;;2089577;28;20056;-69
2020/12/25 04:55:25;;;;;;;6.40;4.60;;;4.60;95.70;;;;;;2089233;28;20021;-69
2020/12/25 04:56:26;;;;;;;7.47;4.60;;;4.50;95.10;;;;;;2090110;28;20028;-69
2020/12/25 04:57:26;;;;;;;5.80;3.95;;;4.50;95.00;;;;;;2090098;28;20835;-69
2020/12/25 04:58:27;;;;;;;6.85;4.40;;;4.40;95.00;;;;;;2089405;28;20419;-69
2020/12/25 04:59:35;;;;;;;6.25;4.22;;;4.40;95.00;;;;;;2080602;28;20121;-71
2020/12/25 05:00:35;;;;;;;5.97;4.03;;;4.30;95.00;;;;;;2081591;28;20093;-69
2020/12/25 05:01:40;;;;;;;5.70;4.47;;;4.20;95.00;;;;;;2080958;28;20079;-70
2020/12/25 05:02:41;;;;;;;7.03;4.55;;;4.20;95.20;;;;;;2090134;28;20107;-69
2020/12/25 05:03:43;;;;;;;6.97;4.30;;;4.20;95.40;;;;;;2090092;28;20561;-69
2020/12/25 05:04:46;;;;;;;6.25;4.50;;;4.20;95.50;;;;;;2089443;28;20032;-70
2020/12/25 05:05:50;;;;;;;7.40;4.78;;;4.10;95.60;;;;;;2089336;28;20021;-70
2020/12/25 05:06:52;;;;;;;6.18;4.50;;;4.10;95.80;;;;;;2089684;28;20033;-69
2020/12/25 05:07:53;;;;;;;6.90;4.72;;;4.10;95.90;;;;;;2089914;28;20025;-69
2020/12/25 05:08:54;;;;;;;6.10;4.43;;;4.10;96.00;;;;;;2089603;28;20138;-68
2020/12/25 05:09:57;;;;;;;7.82;4.82;;;4.10;96.10;;;;;;2090034;28;20033;-67
2020/12/25 05:10:58;;;;;;;5.70;4.40;;;4.10;96.00;;;;;;2090051;28;20052;-68
2020/12/25 05:11:59;;;;;;;5.78;4.40;;;4.10;96.00;;;;;;2089592;28;20356;-68
2020/12/25 05:12:59;;;;;;;5.78;4.38;;;4.10;96.10;;;;;;2089974;28;20029;-68
2020/12/25 05:14:01;;;;;;;7.05;4.20;;;4.10;96.10;;;;;;2089277;28;20456;-68
2020/12/25 05:15:09;;;;;;;5.18;4.05;;;4.10;96.10;;;;;;2089258;28;20021;-69
2020/12/25 05:16:11;;;;;;;6.00;4.40;;;4.10;95.90;;;;;;2090024;28;20032;-69